MXA355 MMPN-MMMZ
Flight info
| Callsign | MXA355 |
|---|---|
| Flight time | N/A |
| Altitude | 34000 |
| Route | UPN3 UPN UJ3 GDL UJ12 ALILI |
| Aircraft | B738/M-SDE2E3FGHIRWXY/LB1 |
Departure
| Time | 2026-05-06 22:24 |
|---|---|
| Airport | Uruapan - Licenciado y General Ignacio Lopez Rayon International Airport (MMPN) |
Arrival
| Time | N/A |
|---|---|
| Airport | General Rafael Buelna International Airport (MMMZ) |
| Time | Latitude | Longitude | Altitude | Speed | Heading |
|---|---|---|---|---|---|
| 2026-05-06 21:37 | 19.40232 | -102.03806 | 5255 ft | 0 kts | 41° |
| 2026-05-06 22:14 | 19.40226 | -102.03812 | 5255 ft | 4 kts | 27° |
| 2026-05-06 22:14 | 19.40207 | -102.03812 | 5254 ft | 4 kts | 316° |
| 2026-05-06 22:14 | 19.40188 | -102.03792 | 5254 ft | 4 kts | 325° |
| 2026-05-06 22:15 | 19.40172 | -102.03785 | 5255 ft | 1 kts | 31° |
| 2026-05-06 22:20 | 19.40179 | -102.03780 | 5257 ft | 2 kts | 32° |
| 2026-05-06 22:20 | 19.40196 | -102.03769 | 5255 ft | 4 kts | 32° |
| 2026-05-06 22:20 | 19.40226 | -102.03749 | 5255 ft | 6 kts | 34° |
| 2026-05-06 22:21 | 19.40229 | -102.03701 | 5256 ft | 9 kts | 119° |
| 2026-05-06 22:21 | 19.40191 | -102.03631 | 5256 ft | 13 kts | 121° |
| 2026-05-06 22:21 | 19.40163 | -102.03539 | 5256 ft | 12 kts | 73° |
| 2026-05-06 22:21 | 19.40219 | -102.03491 | 5257 ft | 11 kts | 27° |
| 2026-05-06 22:22 | 19.40295 | -102.03450 | 5259 ft | 14 kts | 26° |
| 2026-05-06 22:22 | 19.40388 | -102.03402 | 5262 ft | 16 kts | 26° |
| 2026-05-06 22:22 | 19.40487 | -102.03342 | 5265 ft | 16 kts | 19° |
| 2026-05-06 22:22 | 19.40537 | -102.03349 | 5268 ft | 7 kts | 343° |
| 2026-05-06 22:23 | 19.40566 | -102.03322 | 5267 ft | 6 kts | 102° |
| 2026-05-06 22:23 | 19.40543 | -102.03311 | 5266 ft | 5 kts | 179° |
| 2026-05-06 22:23 | 19.40472 | -102.03349 | 5266 ft | 36 kts | 212° |
| 2026-05-06 22:23 | 19.40023 | -102.03642 | 5251 ft | 113 kts | 212° |
| 2026-05-06 22:24 | 19.39154 | -102.04192 | 5261 ft | 175 kts | 210° |
| 2026-05-06 22:24 | 19.38058 | -102.04944 | 5949 ft | 192 kts | 215° |
| 2026-05-06 22:24 | 19.36918 | -102.05707 | 6685 ft | 200 kts | 208° |
| 2026-05-06 22:24 | 19.35720 | -102.06415 | 7583 ft | 193 kts | 208° |
| 2026-05-06 22:25 | 19.34545 | -102.07089 | 8459 ft | 187 kts | 207° |
| 2026-05-06 22:25 | 19.33411 | -102.07742 | 9261 ft | 191 kts | 208° |
| 2026-05-06 22:25 | 19.32161 | -102.08489 | 9514 ft | 217 kts | 210° |
| 2026-05-06 22:25 | 19.30773 | -102.09341 | 9657 ft | 243 kts | 210° |
| 2026-05-06 22:26 | 19.29336 | -102.10216 | 9870 ft | 261 kts | 207° |
| 2026-05-06 22:26 | 19.27518 | -102.10743 | 10043 ft | 287 kts | 179° |
| 2026-05-06 22:26 | 19.25511 | -102.10231 | 10176 ft | 313 kts | 152° |
| 2026-05-06 22:26 | 19.23787 | -102.08718 | 10345 ft | 336 kts | 128° |
| 2026-05-06 22:27 | 19.22650 | -102.06482 | 10483 ft | 357 kts | 107° |
| 2026-05-06 22:27 | 19.22321 | -102.03816 | 10621 ft | 377 kts | 87° |
| 2026-05-06 22:27 | 19.22986 | -102.01085 | 10739 ft | 394 kts | 63° |
| 2026-05-06 22:27 | 19.24729 | -101.98818 | 11017 ft | 405 kts | 38° |
| 2026-05-06 22:28 | 19.26786 | -101.97623 | 11422 ft | 409 kts | 18° |
| 2026-05-06 22:28 | 19.29491 | -101.97246 | 11981 ft | 411 kts | 356° |
| 2026-05-06 22:28 | 19.32257 | -101.98019 | 12458 ft | 417 kts | 333° |
| 2026-05-06 22:28 | 19.34570 | -101.99876 | 12919 ft | 420 kts | 314° |
| 2026-05-06 22:29 | 19.36558 | -102.02016 | 13365 ft | 424 kts | 319° |
| 2026-05-06 22:29 | 19.39023 | -102.03914 | 13883 ft | 425 kts | 328° |
| 2026-05-06 22:29 | 19.41385 | -102.05804 | 14235 ft | 430 kts | 318° |
| 2026-05-06 22:29 | 19.43498 | -102.08086 | 14585 ft | 434 kts | 313° |
| 2026-05-06 22:30 | 19.45540 | -102.10447 | 15045 ft | 436 kts | 313° |
| 2026-05-06 22:30 | 19.47593 | -102.12840 | 15346 ft | 441 kts | 313° |
| 2026-05-06 22:30 | 19.49701 | -102.15272 | 15748 ft | 443 kts | 313° |
| 2026-05-06 22:30 | 19.51813 | -102.17679 | 16019 ft | 449 kts | 313° |
| 2026-05-06 22:31 | 19.53834 | -102.19956 | 16392 ft | 450 kts | 313° |
| 2026-05-06 22:31 | 19.55998 | -102.22381 | 16675 ft | 455 kts | 313° |
| 2026-05-06 22:31 | 19.58185 | -102.24823 | 17052 ft | 456 kts | 313° |
| 2026-05-06 22:31 | 19.60383 | -102.27276 | 17386 ft | 458 kts | 313° |
| 2026-05-06 22:32 | 19.62578 | -102.29726 | 17747 ft | 460 kts | 313° |
| 2026-05-06 22:32 | 19.64786 | -102.32194 | 18058 ft | 462 kts | 313° |
| 2026-05-06 22:32 | 19.67010 | -102.34681 | 18372 ft | 464 kts | 312° |
| 2026-05-06 22:32 | 19.69241 | -102.37176 | 18614 ft | 467 kts | 312° |
| 2026-05-06 22:33 | 19.71477 | -102.39679 | 18976 ft | 467 kts | 312° |
| 2026-05-06 22:33 | 19.73720 | -102.42192 | 19226 ft | 470 kts | 312° |
| 2026-05-06 22:33 | 19.75972 | -102.44718 | 19437 ft | 473 kts | 312° |
| 2026-05-06 22:33 | 19.78228 | -102.47247 | 19774 ft | 472 kts | 312° |
| 2026-05-06 22:34 | 19.80498 | -102.49793 | 20033 ft | 475 kts | 312° |
| 2026-05-06 22:34 | 19.82776 | -102.52348 | 20189 ft | 479 kts | 311° |
| 2026-05-06 22:34 | 19.85074 | -102.54928 | 20484 ft | 480 kts | 311° |
| 2026-05-06 22:34 | 19.87363 | -102.57500 | 20718 ft | 481 kts | 311° |
| 2026-05-06 22:35 | 19.89667 | -102.60093 | 20963 ft | 483 kts | 311° |
| 2026-05-06 22:35 | 19.91977 | -102.62693 | 21230 ft | 484 kts | 311° |
| 2026-05-06 22:35 | 19.94288 | -102.65297 | 21474 ft | 485 kts | 311° |
| 2026-05-06 22:35 | 19.96608 | -102.67912 | 21696 ft | 486 kts | 311° |
| 2026-05-06 22:36 | 19.98925 | -102.70524 | 21915 ft | 487 kts | 311° |
| 2026-05-06 22:36 | 20.01253 | -102.73150 | 22100 ft | 489 kts | 311° |
| 2026-05-06 22:36 | 20.03592 | -102.75789 | 22301 ft | 490 kts | 311° |
| 2026-05-06 22:36 | 20.05937 | -102.78435 | 22492 ft | 492 kts | 311° |
| 2026-05-06 22:37 | 20.08289 | -102.81094 | 22658 ft | 493 kts | 311° |
| 2026-05-06 22:37 | 20.10629 | -102.83744 | 22813 ft | 494 kts | 311° |
| 2026-05-06 22:37 | 20.12983 | -102.86414 | 22999 ft | 495 kts | 311° |
| 2026-05-06 22:37 | 20.15347 | -102.89097 | 23159 ft | 496 kts | 311° |
| 2026-05-06 22:38 | 20.17708 | -102.91778 | 23311 ft | 498 kts | 311° |
| 2026-05-06 22:38 | 20.20080 | -102.94473 | 23448 ft | 499 kts | 311° |
| 2026-05-06 22:38 | 20.21685 | -102.96297 | 23547 ft | 500 kts | 311° |
| 2026-05-06 22:38 | 20.24061 | -102.98997 | 23712 ft | 500 kts | 311° |
| 2026-05-06 22:39 | 20.26445 | -103.01709 | 23861 ft | 500 kts | 311° |
| 2026-05-06 22:39 | 20.28824 | -103.04415 | 24015 ft | 501 kts | 311° |
| 2026-05-06 22:39 | 20.31208 | -103.07129 | 24192 ft | 502 kts | 311° |
| 2026-05-06 22:39 | 20.33593 | -103.09845 | 24381 ft | 502 kts | 311° |
| 2026-05-06 22:40 | 20.35982 | -103.12567 | 24568 ft | 503 kts | 311° |
| 2026-05-06 22:40 | 20.36625 | -103.13300 | 24611 ft | 503 kts | 311° |
| 2026-05-06 22:40 | 20.39018 | -103.16029 | 24752 ft | 504 kts | 310° |
| 2026-05-06 22:40 | 20.41355 | -103.18696 | 24924 ft | 505 kts | 310° |
| 2026-05-06 22:41 | 20.46127 | -103.24143 | 25276 ft | 506 kts | 310° |
| 2026-05-06 22:41 | 20.48535 | -103.26893 | 25409 ft | 506 kts | 310° |
| 2026-05-06 22:41 | 20.50935 | -103.29637 | 25519 ft | 507 kts | 310° |
| 2026-05-06 22:42 | 20.51771 | -103.30616 | 25559 ft | 507 kts | 309° |